sensor_id;sensor_type;location;lat;lon;timestamp;pressure;altitude;pressure_sealevel;temperature;humidity
3524;BME280;1776;53.330;11.498;2024-03-06T00:01:28;24129.91;;;-147.39;72.04
3524;BME280;1776;53.330;11.498;2024-03-06T00:03:53;24079.06;;;-147.39;72.29
3524;BME280;1776;53.330;11.498;2024-03-06T00:06:18;24066.88;;;-147.39;72.54
3524;BME280;1776;53.330;11.498;2024-03-06T00:08:43;24054.69;;;-147.39;72.41
3524;BME280;1776;53.330;11.498;2024-03-06T00:11:09;24089.25;;;-147.39;72.51
3524;BME280;1776;53.330;11.498;2024-03-06T00:13:34;24060.78;;;-147.39;72.68
3524;BME280;1776;53.330;11.498;2024-03-06T00:15:59;24089.25;;;-147.39;72.59
3524;BME280;1776;53.330;11.498;2024-03-06T00:18:24;24093.31;;;-147.39;72.37
3524;BME280;1776;53.330;11.498;2024-03-06T00:20:50;24091.28;;;-147.39;72.93
3524;BME280;1776;53.330;11.498;2024-03-06T00:23:15;24083.13;;;-147.39;73.23
3524;BME280;1776;53.330;11.498;2024-03-06T00:25:40;24075.00;;;-147.39;73.20
3524;BME280;1776;53.330;11.498;2024-03-06T00:28:05;24042.47;;;-147.39;73.02
3524;BME280;1776;53.330;11.498;2024-03-06T00:30:31;24048.56;;;-147.39;73.12
3524;BME280;1776;53.330;11.498;2024-03-06T00:32:56;24026.22;;;-147.39;73.04
3524;BME280;1776;53.330;11.498;2024-03-06T00:35:21;24050.59;;;-147.39;73.41
3524;BME280;1776;53.330;11.498;2024-03-06T00:37:47;24095.34;;;-147.39;73.43
3524;BME280;1776;53.330;11.498;2024-03-06T00:40:12;24048.56;;;-147.39;74.11
3524;BME280;1776;53.330;11.498;2024-03-06T00:42:38;24046.53;;;-147.39;73.81
3524;BME280;1776;53.330;11.498;2024-03-06T00:45:04;24048.56;;;-147.39;73.62
3524;BME280;1776;53.330;11.498;2024-03-06T00:47:29;24050.59;;;-147.39;73.86
3524;BME280;1776;53.330;11.498;2024-03-06T00:49:54;24030.28;;;-147.39;73.83
3524;BME280;1776;53.330;11.498;2024-03-06T00:52:20;24005.88;;;-147.39;73.88
3524;BME280;1776;53.330;11.498;2024-03-06T00:54:45;24052.63;;;-147.39;73.84
3524;BME280;1776;53.330;11.498;2024-03-06T00:57:10;23997.75;;;-147.39;73.88
3524;BME280;1776;53.330;11.498;2024-03-06T00:59:35;24050.59;;;-147.39;74.09
3524;BME280;1776;53.330;11.498;2024-03-06T01:02:01;24003.84;;;-147.39;74.15
3524;BME280;1776;53.330;11.498;2024-03-06T01:04:26;24028.25;;;-147.39;73.99
3524;BME280;1776;53.330;11.498;2024-03-06T01:06:51;23993.69;;;-147.39;74.32
3524;BME280;1776;53.330;11.498;2024-03-06T01:09:17;24005.88;;;-147.39;73.64
3524;BME280;1776;53.330;11.498;2024-03-06T01:11:42;24032.31;;;-147.39;74.19
3524;BME280;1776;53.330;11.498;2024-03-06T01:14:07;24003.84;;;-147.39;73.83
3524;BME280;1776;53.330;11.498;2024-03-06T01:16:32;24003.84;;;-147.39;73.90
3524;BME280;1776;53.330;11.498;2024-03-06T01:18:58;24018.06;;;-147.39;73.76
3524;BME280;1776;53.330;11.498;2024-03-06T01:21:23;24003.84;;;-147.39;74.42
3524;BME280;1776;53.330;11.498;2024-03-06T01:23:48;24003.84;;;-147.39;74.19
3524;BME280;1776;53.330;11.498;2024-03-06T01:26:13;23983.50;;;-147.39;74.34
3524;BME280;1776;53.330;11.498;2024-03-06T01:28:39;24003.84;;;-147.39;74.45
3524;BME280;1776;53.330;11.498;2024-03-06T01:31:04;23987.56;;;-147.39;74.52
3524;BME280;1776;53.330;11.498;2024-03-06T01:33:30;23977.41;;;-147.39;74.83
3524;BME280;1776;53.330;11.498;2024-03-06T01:35:55;23979.44;;;-147.39;74.80
3524;BME280;1776;53.330;11.498;2024-03-06T01:38:20;23981.47;;;-147.39;75.18
3524;BME280;1776;53.330;11.498;2024-03-06T01:40:46;23953.00;;;-147.39;75.62
3524;BME280;1776;53.330;11.498;2024-03-06T01:43:22;23983.50;;;-147.39;75.67
3524;BME280;1776;53.330;11.498;2024-03-06T01:45:49;23926.59;;;-147.39;75.36
3524;BME280;1776;53.330;11.498;2024-03-06T01:48:16;23987.56;;;-147.39;75.62
3524;BME280;1776;53.330;11.498;2024-03-06T01:50:42;23938.78;;;-147.39;75.49
3524;BME280;1776;53.330;11.498;2024-03-06T01:53:08;23950.97;;;-147.39;75.30
3524;BME280;1776;53.330;11.498;2024-03-06T01:55:34;23940.81;;;-147.39;75.71
3524;BME280;1776;53.330;11.498;2024-03-06T01:58:00;23975.38;;;-147.39;75.02
3524;BME280;1776;53.330;11.498;2024-03-06T02:00:26;23965.22;;;-147.39;74.75
3524;BME280;1776;53.330;11.498;2024-03-06T02:02:51;23959.13;;;-147.39;74.40
3524;BME280;1776;53.330;11.498;2024-03-06T02:05:17;23999.78;;;-147.39;74.48
3524;BME280;1776;53.330;11.498;2024-03-06T02:07:43;23932.69;;;-147.39;74.36
3524;BME280;1776;53.330;11.498;2024-03-06T02:10:09;23959.13;;;-147.39;74.26
3524;BME280;1776;53.330;11.498;2024-03-06T02:12:36;23946.91;;;-147.39;73.83
3524;BME280;1776;53.330;11.498;2024-03-06T02:15:01;23928.63;;;-147.39;73.68
3524;BME280;1776;53.330;11.498;2024-03-06T02:17:28;23959.13;;;-147.39;73.32
3524;BME280;1776;53.330;11.498;2024-03-06T02:19:55;23961.16;;;-147.39;73.16
3524;BME280;1776;53.330;11.498;2024-03-06T02:22:20;23967.25;;;-147.39;73.04
3524;BME280;1776;53.330;11.498;2024-03-06T02:24:48;23953.00;;;-147.39;73.19
3524;BME280;1776;53.330;11.498;2024-03-06T02:27:13;23967.25;;;-147.39;73.38
3524;BME280;1776;53.330;11.498;2024-03-06T02:29:39;23959.13;;;-147.39;73.20
3524;BME280;1776;53.330;11.498;2024-03-06T02:32:04;23961.16;;;-147.39;73.01
3524;BME280;1776;53.330;11.498;2024-03-06T02:34:29;23934.72;;;-147.39;73.10
3524;BME280;1776;53.330;11.498;2024-03-06T02:36:55;23961.16;;;-147.39;73.13
3524;BME280;1776;53.330;11.498;2024-03-06T02:39:21;23946.91;;;-147.39;73.10
3524;BME280;1776;53.330;11.498;2024-03-06T02:41:47;23955.03;;;-147.39;72.83
3524;BME280;1776;53.330;11.498;2024-03-06T02:44:12;23965.22;;;-147.39;73.36
3524;BME280;1776;53.330;11.498;2024-03-06T02:46:37;23961.16;;;-147.39;73.49
3524;BME280;1776;53.330;11.498;2024-03-06T02:49:02;23991.66;;;-147.39;73.42
3524;BME280;1776;53.330;11.498;2024-03-06T02:51:28;23910.31;;;-147.39;73.50
3524;BME280;1776;53.330;11.498;2024-03-06T02:53:53;23973.34;;;-147.39;73.49
3524;BME280;1776;53.330;11.498;2024-03-06T02:56:19;23944.88;;;-147.39;73.48
3524;BME280;1776;53.330;11.498;2024-03-06T02:58:45;23946.91;;;-147.39;73.12
3524;BME280;1776;53.330;11.498;2024-03-06T03:01:10;23928.63;;;-147.39;73.52
3524;BME280;1776;53.330;11.498;2024-03-06T03:03:36;23946.91;;;-147.39;73.79
3524;BME280;1776;53.330;11.498;2024-03-06T03:06:01;23938.78;;;-147.39;74.24
3524;BME280;1776;53.330;11.498;2024-03-06T03:08:27;23908.28;;;-147.39;74.23
3524;BME280;1776;53.330;11.498;2024-03-06T03:10:52;23965.22;;;-147.39;74.28
3524;BME280;1776;53.330;11.498;2024-03-06T03:13:17;23918.44;;;-147.39;74.76
3524;BME280;1776;53.330;11.498;2024-03-06T03:15:43;23904.22;;;-147.39;74.60
3524;BME280;1776;53.330;11.498;2024-03-06T03:18:08;23887.94;;;-147.39;74.42
3524;BME280;1776;53.330;11.498;2024-03-06T03:20:33;23908.28;;;-147.39;74.48
3524;BME280;1776;53.330;11.498;2024-03-06T03:23:00;23900.16;;;-147.39;74.88
3524;BME280;1776;53.330;11.498;2024-03-06T03:25:26;23930.66;;;-147.39;74.77
3524;BME280;1776;53.330;11.498;2024-03-06T03:27:51;23906.25;;;-147.39;75.50
3524;BME280;1776;53.330;11.498;2024-03-06T03:30:17;23912.34;;;-147.39;75.31
3524;BME280;1776;53.330;11.498;2024-03-06T03:32:45;23934.72;;;-147.39;75.13
3524;BME280;1776;53.330;11.498;2024-03-06T03:35:10;23938.78;;;-147.39;74.78
3524;BME280;1776;53.330;11.498;2024-03-06T03:37:36;23851.34;;;-147.39;74.80
3524;BME280;1776;53.330;11.498;2024-03-06T03:40:01;23922.50;;;-147.39;74.93
3524;BME280;1776;53.330;11.498;2024-03-06T03:42:28;23887.94;;;-147.39;75.20
3524;BME280;1776;53.330;11.498;2024-03-06T03:44:53;23875.75;;;-147.39;75.22
3524;BME280;1776;53.330;11.498;2024-03-06T03:47:18;23873.72;;;-147.39;75.27
3524;BME280;1776;53.330;11.498;2024-03-06T03:49:43;23908.28;;;-147.39;75.48
3524;BME280;1776;53.330;11.498;2024-03-06T03:52:09;23849.31;;;-147.39;75.10
3524;BME280;1776;53.330;11.498;2024-03-06T03:54:34;23855.41;;;-147.39;75.32
3524;BME280;1776;53.330;11.498;2024-03-06T03:57:00;23887.94;;;-147.39;75.66
3524;BME280;1776;53.330;11.498;2024-03-06T03:59:25;23902.19;;;-147.39;75.75
3524;BME280;1776;53.330;11.498;2024-03-06T04:01:52;23904.22;;;-147.39;75.95
3524;BME280;1776;53.330;11.498;2024-03-06T04:04:17;23873.72;;;-147.39;76.64
3524;BME280;1776;53.330;11.498;2024-03-06T04:06:43;23885.91;;;-147.39;76.55
3524;BME280;1776;53.330;11.498;2024-03-06T04:09:08;23820.84;;;-147.39;76.62
3524;BME280;1776;53.330;11.498;2024-03-06T04:11:36;23841.19;;;-147.39;76.98
3524;BME280;1776;53.330;11.498;2024-03-06T04:14:03;23873.72;;;-147.39;76.86
3524;BME280;1776;53.330;11.498;2024-03-06T04:16:28;23851.34;;;-147.39;76.59
3524;BME280;1776;53.330;11.498;2024-03-06T04:18:54;23896.09;;;-147.39;75.85
3524;BME280;1776;53.330;11.498;2024-03-06T04:21:19;23871.69;;;-147.39;75.71
3524;BME280;1776;53.330;11.498;2024-03-06T04:23:44;23865.59;;;-147.39;76.19
3524;BME280;1776;53.330;11.498;2024-03-06T04:26:09;23867.63;;;-147.39;76.20
3524;BME280;1776;53.330;11.498;2024-03-06T04:28:35;23859.50;;;-147.39;75.96
3524;BME280;1776;53.330;11.498;2024-03-06T04:31:00;23721.25;;;-147.39;75.93
3524;BME280;1776;53.330;11.498;2024-03-06T04:33:26;23857.47;;;-147.39;76.17
3524;BME280;1776;53.330;11.498;2024-03-06T04:35:51;23853.38;;;-147.39;75.53
3524;BME280;1776;53.330;11.498;2024-03-06T04:38:17;23271.94;;;-147.39;75.51
3524;BME280;1776;53.330;11.498;2024-03-06T04:40:42;23867.63;;;-147.39;75.47
3524;BME280;1776;53.330;11.498;2024-03-06T04:43:08;23861.53;;;-147.39;75.39
3524;BME280;1776;53.330;11.498;2024-03-06T04:45:33;23843.22;;;-147.39;75.10
3524;BME280;1776;53.330;11.498;2024-03-06T04:47:58;23900.16;;;-147.39;74.99
3524;BME280;1776;53.330;11.498;2024-03-06T04:50:24;23865.59;;;-147.39;75.42
3524;BME280;1776;53.330;11.498;2024-03-06T04:52:49;23845.25;;;-147.39;74.62
3524;BME280;1776;53.330;11.498;2024-03-06T04:55:15;23881.84;;;-147.39;74.68
3524;BME280;1776;53.330;11.498;2024-03-06T04:57:45;23829.00;;;-147.39;74.30
3524;BME280;1776;53.330;11.498;2024-03-06T05:00:11;23837.13;;;-147.39;74.33
3524;BME280;1776;53.330;11.498;2024-03-06T05:02:37;23865.59;;;-147.39;74.38
3524;BME280;1776;53.330;11.498;2024-03-06T05:05:03;23835.09;;;-147.39;74.11
3524;BME280;1776;53.330;11.498;2024-03-06T05:07:30;23871.69;;;-147.39;74.45
3524;BME280;1776;53.330;11.498;2024-03-06T05:09:56;23826.97;;;-147.39;74.38
3524;BME280;1776;53.330;11.498;2024-03-06T05:12:23;23857.47;;;-147.39;74.03
3524;BME280;1776;53.330;11.498;2024-03-06T05:14:48;23829.00;;;-147.39;74.11
3524;BME280;1776;53.330;11.498;2024-03-06T05:17:13;23816.78;;;-147.39;74.36
3524;BME280;1776;53.330;11.498;2024-03-06T05:19:39;23833.06;;;-147.39;74.43
3524;BME280;1776;53.330;11.498;2024-03-06T05:22:04;23829.00;;;-147.39;74.43
3524;BME280;1776;53.330;11.498;2024-03-06T05:24:30;23857.47;;;-147.39;74.72
3524;BME280;1776;53.330;11.498;2024-03-06T05:26:56;23792.41;;;-147.39;74.36
3524;BME280;1776;53.330;11.498;2024-03-06T05:29:21;23808.66;;;-147.39;74.46
3524;BME280;1776;53.330;11.498;2024-03-06T05:31:46;23824.94;;;-147.39;74.21
3524;BME280;1776;53.330;11.498;2024-03-06T05:34:11;23804.59;;;-147.39;73.95
3524;BME280;1776;53.330;11.498;2024-03-06T05:36:37;23837.13;;;-147.39;74.12
3524;BME280;1776;53.330;11.498;2024-03-06T05:39:02;23792.41;;;-147.39;74.28
3524;BME280;1776;53.330;11.498;2024-03-06T05:41:32;23816.78;;;-147.39;74.07
3524;BME280;1776;53.330;11.498;2024-03-06T05:43:57;23826.97;;;-147.39;74.03
3524;BME280;1776;53.330;11.498;2024-03-06T05:46:23;23808.66;;;-147.39;74.06
3524;BME280;1776;53.330;11.498;2024-03-06T05:48:48;23780.19;;;-147.39;73.96
3524;BME280;1776;53.330;11.498;2024-03-06T05:51:15;23800.53;;;-147.39;74.12
3524;BME280;1776;53.330;11.498;2024-03-06T05:53:40;23784.25;;;-147.39;73.79
3524;BME280;1776;53.330;11.498;2024-03-06T05:56:07;23820.84;;;-147.39;74.08
3524;BME280;1776;53.330;11.498;2024-03-06T05:58:33;23757.84;;;-147.39;73.86
3524;BME280;1776;53.330;11.498;2024-03-06T06:00:59;23837.13;;;-147.39;73.85
3524;BME280;1776;53.330;11.498;2024-03-06T06:03:25;23790.38;;;-147.39;73.73
3524;BME280;1776;53.330;11.498;2024-03-06T06:05:50;23812.72;;;-147.39;73.86
3524;BME280;1776;53.330;11.498;2024-03-06T06:08:15;23818.81;;;-147.39;73.97
3524;BME280;1776;53.330;11.498;2024-03-06T06:10:40;23820.84;;;-147.39;73.84
3524;BME280;1776;53.330;11.498;2024-03-06T06:13:06;23798.50;;;-147.39;74.07
3524;BME280;1776;53.330;11.498;2024-03-06T06:15:31;23802.56;;;-147.39;73.77
3524;BME280;1776;53.330;11.498;2024-03-06T06:17:57;23784.25;;;-147.39;73.92
3524;BME280;1776;53.330;11.498;2024-03-06T06:20:22;23802.56;;;-147.39;74.18
3524;BME280;1776;53.330;11.498;2024-03-06T06:22:47;23786.28;;;-147.39;73.96
3524;BME280;1776;53.330;11.498;2024-03-06T06:25:12;23780.19;;;-147.39;74.07
3524;BME280;1776;53.330;11.498;2024-03-06T06:27:38;23806.63;;;-147.39;74.34
3524;BME280;1776;53.330;11.498;2024-03-06T06:30:04;23792.41;;;-147.39;74.36
3524;BME280;1776;53.330;11.498;2024-03-06T06:32:29;23776.13;;;-147.39;74.49
3524;BME280;1776;53.330;11.498;2024-03-06T06:34:55;23776.13;;;-147.39;74.28
3524;BME280;1776;53.330;11.498;2024-03-06T06:37:21;23780.19;;;-147.39;74.07
3524;BME280;1776;53.330;11.498;2024-03-06T06:39:47;23790.38;;;-147.39;74.15
3524;BME280;1776;53.330;11.498;2024-03-06T06:42:13;23780.19;;;-147.39;74.13
3524;BME280;1776;53.330;11.498;2024-03-06T06:44:38;23788.31;;;-147.39;74.57
3524;BME280;1776;53.330;11.498;2024-03-06T06:47:04;23755.81;;;-147.39;75.05
3524;BME280;1776;53.330;11.498;2024-03-06T06:49:29;23751.72;;;-147.39;74.72
3524;BME280;1776;53.330;11.498;2024-03-06T06:51:54;23753.75;;;-147.39;75.35
3524;BME280;1776;53.330;11.498;2024-03-06T06:54:19;23763.94;;;-147.39;75.72
3524;BME280;1776;53.330;11.498;2024-03-06T06:56:44;23719.19;;;-147.39;75.63
3524;BME280;1776;53.330;11.498;2024-03-06T06:59:10;23824.94;;;-147.39;75.79
3524;BME280;1776;53.330;11.498;2024-03-06T07:01:35;23755.81;;;-147.39;75.92
3524;BME280;1776;53.330;11.498;2024-03-06T07:04:00;23774.09;;;-147.39;76.18
3524;BME280;1776;53.330;11.498;2024-03-06T07:06:27;23782.22;;;-147.39;75.73
3524;BME280;1776;53.330;11.498;2024-03-06T07:08:52;23739.53;;;-147.39;75.89
3524;BME280;1776;53.330;11.498;2024-03-06T07:11:17;23790.38;;;-147.39;76.39
3524;BME280;1776;53.330;11.498;2024-03-06T07:13:43;23717.16;;;-147.39;77.06
3524;BME280;1776;53.330;11.498;2024-03-06T07:16:08;23786.28;;;-147.39;77.53
3524;BME280;1776;53.330;11.498;2024-03-06T07:18:34;23765.97;;;-147.39;77.18
3524;BME280;1776;53.330;11.498;2024-03-06T07:20:59;23755.81;;;-147.39;77.16
3524;BME280;1776;53.330;11.498;2024-03-06T07:23:25;23772.06;;;-147.39;77.17
3524;BME280;1776;53.330;11.498;2024-03-06T07:25:50;23780.19;;;-147.39;77.22
3524;BME280;1776;53.330;11.498;2024-03-06T07:28:15;23772.06;;;-147.39;76.85
3524;BME280;1776;53.330;11.498;2024-03-06T07:30:41;23790.38;;;-147.39;77.07
3524;BME280;1776;53.330;11.498;2024-03-06T07:33:06;23778.16;;;-147.39;77.04
3524;BME280;1776;53.330;11.498;2024-03-06T07:35:32;23806.63;;;-147.39;76.57
3524;BME280;1776;53.330;11.498;2024-03-06T07:37:57;23770.03;;;-147.39;76.42
3524;BME280;1776;53.330;11.498;2024-03-06T07:40:23;23818.81;;;-147.39;76.46
3524;BME280;1776;53.330;11.498;2024-03-06T07:42:48;23794.44;;;-147.39;76.12
3524;BME280;1776;53.330;11.498;2024-03-06T07:45:13;23812.72;;;-147.39;75.92
3524;BME280;1776;53.330;11.498;2024-03-06T07:47:39;23812.72;;;-147.39;76.50
3524;BME280;1776;53.330;11.498;2024-03-06T07:50:06;23833.06;;;-147.39;76.51
3524;BME280;1776;53.330;11.498;2024-03-06T07:52:32;23829.00;;;-147.39;76.81
3524;BME280;1776;53.330;11.498;2024-03-06T07:54:57;23824.94;;;-147.39;76.24
3524;BME280;1776;53.330;11.498;2024-03-06T07:57:23;23664.31;;;-147.39;76.41
3524;BME280;1776;53.330;11.498;2024-03-06T07:59:48;23849.31;;;-147.39;77.58
3524;BME280;1776;53.330;11.498;2024-03-06T08:02:14;23877.78;;;-147.39;76.17
3524;BME280;1776;53.330;11.498;2024-03-06T08:04:39;23930.66;;;-147.39;74.86
3524;BME280;1776;53.330;11.498;2024-03-06T08:07:05;24052.63;;;-147.39;70.37
3524;BME280;1776;53.330;11.498;2024-03-06T08:09:30;24144.13;;;-147.39;66.06
3524;BME280;1776;53.330;11.498;2024-03-06T08:11:55;24296.63;;;-147.39;62.91
3524;BME280;1776;53.330;11.498;2024-03-06T08:14:21;24355.59;;;-147.39;61.51
3524;BME280;1776;53.330;11.498;2024-03-06T08:16:46;24479.66;;;-147.39;58.30
3524;BME280;1776;53.330;11.498;2024-03-06T08:19:11;24542.69;;;-147.39;56.40
3524;BME280;1776;53.330;11.498;2024-03-06T08:21:37;24676.91;;;-147.39;54.72
3524;BME280;1776;53.330;11.498;2024-03-06T08:24:02;24676.91;;;-147.39;53.83
3524;BME280;1776;53.330;11.498;2024-03-06T08:26:27;24737.91;;;-147.39;52.74
3524;BME280;1776;53.330;11.498;2024-03-06T08:28:53;24794.84;;;-147.39;51.05
3524;BME280;1776;53.330;11.498;2024-03-06T08:31:18;24912.81;;;-147.39;49.46
3524;BME280;1776;53.330;11.498;2024-03-06T08:33:43;25008.38;;;-147.39;48.42
3524;BME280;1776;53.330;11.498;2024-03-06T08:36:09;25081.59;;;-147.39;46.90
3524;BME280;1776;53.330;11.498;2024-03-06T08:38:35;25130.41;;;-147.39;46.96
3524;BME280;1776;53.330;11.498;2024-03-06T08:41:00;25124.31;;;-147.39;46.58
3524;BME280;1776;53.330;11.498;2024-03-06T08:43:25;25197.53;;;-147.39;46.85
3524;BME280;1776;53.330;11.498;2024-03-06T08:45:51;25262.59;;;-147.39;44.52
3524;BME280;1776;53.330;11.498;2024-03-06T08:48:16;25289.06;;;-147.39;45.22
3524;BME280;1776;53.330;11.498;2024-03-06T08:50:42;25429.38;;;-147.39;42.35
3524;BME280;1776;53.330;11.498;2024-03-06T08:53:07;25433.47;;;-147.39;41.60
3524;BME280;1776;53.330;11.498;2024-03-06T08:55:34;25455.84;;;-147.39;43.19
3524;BME280;1776;53.330;11.498;2024-03-06T08:57:59;25427.34;;;-147.39;42.09
3524;BME280;1776;53.330;11.498;2024-03-06T09:00:26;25394.81;;;-147.39;43.36
3524;BME280;1776;53.330;11.498;2024-03-06T09:02:52;25482.28;;;-147.39;41.87
3524;BME280;1776;53.330;11.498;2024-03-06T09:05:18;25451.75;;;-147.39;41.76
3524;BME280;1776;53.330;11.498;2024-03-06T09:07:43;25496.50;;;-147.39;41.97
3524;BME280;1776;53.330;11.498;2024-03-06T09:10:12;25498.53;;;-147.39;41.17
3524;BME280;1776;53.330;11.498;2024-03-06T09:12:38;25632.78;;;-147.39;39.99
3524;BME280;1776;53.330;11.498;2024-03-06T09:15:04;25567.69;;;-147.39;41.38
3524;BME280;1776;53.330;11.498;2024-03-06T09:17:29;25600.25;;;-147.39;38.90
3524;BME280;1776;53.330;11.498;2024-03-06T09:19:55;25931.81;;;-147.39;38.83
3524;BME280;1776;53.330;11.498;2024-03-06T09:22:20;25944.03;;;-147.39;35.47
3524;BME280;1776;53.330;11.498;2024-03-06T09:24:45;26104.72;;;-147.39;34.59
3524;BME280;1776;53.330;11.498;2024-03-06T09:27:12;25756.88;;;-147.39;37.27
3524;BME280;1776;53.330;11.498;2024-03-06T09:29:39;25466.00;;;-147.39;40.62
3524;BME280;1776;53.330;11.498;2024-03-06T09:32:04;25362.28;;;-147.39;42.48
3524;BME280;1776;53.330;11.498;2024-03-06T09:34:29;25282.94;;;-147.39;44.07
3524;BME280;1776;53.330;11.498;2024-03-06T09:36:55;25274.81;;;-147.39;44.22
3524;BME280;1776;53.330;11.498;2024-03-06T09:39:20;25289.06;;;-147.39;43.94
3524;BME280;1776;53.330;11.498;2024-03-06T09:41:47;25287.00;;;-147.39;43.78
3524;BME280;1776;53.330;11.498;2024-03-06T09:44:14;25498.53;;;-147.39;41.06
3524;BME280;1776;53.330;11.498;2024-03-06T09:46:42;25555.50;;;-147.39;40.03
3524;BME280;1776;53.330;11.498;2024-03-06T09:49:09;25675.50;;;-147.39;39.17
3524;BME280;1776;53.330;11.498;2024-03-06T09:51:35;25398.88;;;-147.39;41.08
3524;BME280;1776;53.330;11.498;2024-03-06T09:54:00;25118.22;;;-147.39;44.41
3524;BME280;1776;53.330;11.498;2024-03-06T09:56:26;25057.19;;;-147.39;46.79
3524;BME280;1776;53.330;11.498;2024-03-06T09:58:51;25002.28;;;-147.39;47.72
3524;BME280;1776;53.330;11.498;2024-03-06T10:01:19;24955.50;;;-147.39;48.27
3524;BME280;1776;53.330;11.498;2024-03-06T10:03:44;24933.13;;;-147.39;48.83
3524;BME280;1776;53.330;11.498;2024-03-06T10:06:11;24835.53;;;-147.39;49.59
3524;BME280;1776;53.330;11.498;2024-03-06T10:08:36;24811.13;;;-147.39;50.10
3524;BME280;1776;53.330;11.498;2024-03-06T10:11:03;24798.91;;;-147.39;50.69
3524;BME280;1776;53.330;11.498;2024-03-06T10:13:28;24794.84;;;-147.39;50.97
3524;BME280;1776;53.330;11.498;2024-03-06T10:16:04;24762.31;;;-147.39;51.30
3524;BME280;1776;53.330;11.498;2024-03-06T10:18:33;24809.09;;;-147.39;50.66
3524;BME280;1776;53.330;11.498;2024-03-06T10:20:59;24845.69;;;-147.39;50.18
3524;BME280;1776;53.330;11.498;2024-03-06T10:23:25;24794.84;;;-147.39;50.93
3524;BME280;1776;53.330;11.498;2024-03-06T10:25:53;24825.34;;;-147.39;50.02
3524;BME280;1776;53.330;11.498;2024-03-06T10:28:20;24790.78;;;-147.39;50.04
3524;BME280;1776;53.330;11.498;2024-03-06T10:30:47;24786.72;;;-147.39;49.69
3524;BME280;1776;53.330;11.498;2024-03-06T10:33:13;24796.88;;;-147.39;50.05
3524;BME280;1776;53.330;11.498;2024-03-06T10:35:43;24760.28;;;-147.39;49.54
3524;BME280;1776;53.330;11.498;2024-03-06T10:38:09;24758.25;;;-147.39;49.29
3524;BME280;1776;53.330;11.498;2024-03-06T10:40:37;24811.13;;;-147.39;49.95
3524;BME280;1776;53.330;11.498;2024-03-06T10:43:04;24788.75;;;-147.39;49.69
3524;BME280;1776;53.330;11.498;2024-03-06T10:45:52;24819.25;;;-147.39;49.65
3524;BME280;1776;53.330;11.498;2024-03-06T10:48:21;24825.34;;;-147.39;49.87
3524;BME280;1776;53.330;11.498;2024-03-06T10:50:48;24864.00;;;-147.39;49.34
3524;BME280;1776;53.330;11.498;2024-03-06T10:53:15;24859.94;;;-147.39;49.02
3524;BME280;1776;53.330;11.498;2024-03-06T10:55:43;24853.81;;;-147.39;49.06
3524;BME280;1776;53.330;11.498;2024-03-06T10:58:10;24855.84;;;-147.39;48.36
3524;BME280;1776;53.330;11.498;2024-03-06T11:00:44;24866.03;;;-147.39;48.71
3524;BME280;1776;53.330;11.498;2024-03-06T11:03:11;24866.03;;;-147.39;48.68
3524;BME280;1776;53.330;11.498;2024-03-06T11:05:40;24884.31;;;-147.39;48.96
3524;BME280;1776;53.330;11.498;2024-03-06T11:08:09;24861.97;;;-147.39;49.10
3524;BME280;1776;53.330;11.498;2024-03-06T11:10:37;24882.28;;;-147.39;48.57
3524;BME280;1776;53.330;11.498;2024-03-06T11:15:45;24849.75;;;-147.39;49.03
3524;BME280;1776;53.330;11.498;2024-03-06T11:23:31;24916.88;;;-147.39;48.57
3524;BME280;1776;53.330;11.498;2024-03-06T11:26:01;24904.66;;;-147.39;47.93
3524;BME280;1776;53.330;11.498;2024-03-06T11:28:30;24908.72;;;-147.39;48.05
3524;BME280;1776;53.330;11.498;2024-03-06T11:31:09;24965.69;;;-147.39;47.83
3524;BME280;1776;53.330;11.498;2024-03-06T11:33:40;24925.00;;;-147.39;47.89
3524;BME280;1776;53.330;11.498;2024-03-06T11:36:20;24943.31;;;-147.39;47.73
3524;BME280;1776;53.330;11.498;2024-03-06T11:39:06;24943.31;;;-147.39;46.90
3524;BME280;1776;53.330;11.498;2024-03-06T11:44:13;24963.63;;;-147.39;47.17
3524;BME280;1776;53.330;11.498;2024-03-06T11:46:46;24918.91;;;-147.39;47.97
3524;BME280;1776;53.330;11.498;2024-03-06T11:49:19;24939.25;;;-147.39;47.93
3524;BME280;1776;53.330;11.498;2024-03-06T11:51:55;24931.09;;;-147.39;48.45
3524;BME280;1776;53.330;11.498;2024-03-06T11:54:25;24971.78;;;-147.39;47.63
3524;BME280;1776;53.330;11.498;2024-03-06T11:56:56;24951.44;;;-147.39;47.33
3524;BME280;1776;53.330;11.498;2024-03-06T12:01:48;24975.84;;;-147.39;46.53
3524;BME280;1776;53.330;11.498;2024-03-06T12:04:13;24998.22;;;-147.39;46.46
3524;BME280;1776;53.330;11.498;2024-03-06T12:06:38;24971.78;;;-147.39;47.31
3524;BME280;1776;53.330;11.498;2024-03-06T12:09:04;24951.44;;;-147.39;47.11
3524;BME280;1776;53.330;11.498;2024-03-06T12:11:29;24935.16;;;-147.39;46.91
3524;BME280;1776;53.330;11.498;2024-03-06T12:13:56;24963.63;;;-147.39;46.48
3524;BME280;1776;53.330;11.498;2024-03-06T12:16:22;25004.31;;;-147.39;46.86
3524;BME280;1776;53.330;11.498;2024-03-06T12:18:54;24981.94;;;-147.39;46.96
3524;BME280;1776;53.330;11.498;2024-03-06T12:21:19;25012.44;;;-147.39;46.92
3524;BME280;1776;53.330;11.498;2024-03-06T12:23:45;25024.66;;;-147.39;46.89
3524;BME280;1776;53.330;11.498;2024-03-06T12:26:10;25004.31;;;-147.39;46.56
3524;BME280;1776;53.330;11.498;2024-03-06T12:28:37;25006.34;;;-147.39;46.38
3524;BME280;1776;53.330;11.498;2024-03-06T12:31:03;25016.53;;;-147.39;46.83
3524;BME280;1776;53.330;11.498;2024-03-06T12:33:29;25049.06;;;-147.39;46.73
3524;BME280;1776;53.330;11.498;2024-03-06T12:36:08;25071.44;;;-147.39;45.74
3524;BME280;1776;53.330;11.498;2024-03-06T12:38:36;25002.28;;;-147.39;46.09
3524;BME280;1776;53.330;11.498;2024-03-06T12:41:02;24983.97;;;-147.39;45.43
3524;BME280;1776;53.330;11.498;2024-03-06T12:43:28;25008.38;;;-147.39;45.77
3524;BME280;1776;53.330;11.498;2024-03-06T12:45:56;25004.31;;;-147.39;46.62
3524;BME280;1776;53.330;11.498;2024-03-06T12:48:23;25036.84;;;-147.39;45.70
3524;BME280;1776;53.330;11.498;2024-03-06T12:50:49;25053.13;;;-147.39;45.64
3524;BME280;1776;53.330;11.498;2024-03-06T12:53:18;25055.16;;;-147.39;45.65
3524;BME280;1776;53.330;11.498;2024-03-06T12:55:44;25083.63;;;-147.39;44.57
3524;BME280;1776;53.330;11.498;2024-03-06T12:58:11;25073.47;;;-147.39;44.73